Aberdeen, Ohio
Current Conditions -  °F | °C
As of 11:15 AM on Sunday 23 Nov 2014 (Local Time) from KFGX Reporting Station
Overcast Overcast  
Wind Chill: 59°   Ceiling: 5000
Heat Index: 59°   Visibility: 10mi
Dew Point: 41°   Wind: 7mph
Humidity: 52%   Direction: 160°SSE
Pressure: 29.94"   Gusts: NA
Location:  38.66°N, 83.76°W
Report Text: KFGX 231615Z AUTO 16006KT 10SM OVC050 15/05 A2994 RMK AO2 T01500052
Loading
Personal Weather Stations






























Interactive Weather Map New forecast layout! Learn more

10-Day Weather Forecast

Advertisements
Track Severe Weather on mobile